SEJ051 OMDB-VAPO
Flight info
| Callsign | SEJ051 |
|---|---|
| Flight time | N/A |
| Altitude | 37000 |
| Route | IVURO M677 LALDO B505 NADSO A777 VAXIM L301 KARKU M638 BBB W28 PPN |
| Aircraft | B38M/M-SDE1FGHILORVWXY/HB1 |
Departure
| Time | N/A |
|---|---|
| Airport | Dubai International Airport (OMDB) |
Arrival
| Time | 2026-04-17 18:07 |
|---|---|
| Airport | Pune International Airport (VAPO) |
| Time | Latitude | Longitude | Altitude | Speed | Heading |
|---|---|---|---|---|---|
| 2026-04-17 17:14 | 22.57972 | 65.14173 | 34869 ft | 453 kts | 114° |
| 2026-04-17 17:14 | 22.55634 | 65.20444 | 34886 ft | 453 kts | 115° |
| 2026-04-17 17:15 | 22.48150 | 65.40334 | 34896 ft | 455 kts | 111° |
| 2026-04-17 17:15 | 22.39444 | 65.70765 | 34888 ft | 456 kts | 110° |
| 2026-04-17 17:15 | 22.33779 | 65.82968 | 34686 ft | 451 kts | 123° |
| 2026-04-17 17:16 | 22.27783 | 65.94821 | 34722 ft | 450 kts | 121° |
| 2026-04-17 17:16 | 22.21911 | 66.06724 | 34579 ft | 453 kts | 121° |
| 2026-04-17 17:16 | 22.16563 | 66.18981 | 34521 ft | 456 kts | 120° |
| 2026-04-17 17:17 | 22.07399 | 66.44616 | 34793 ft | 449 kts | 115° |
| 2026-04-17 17:17 | 21.98843 | 66.70037 | 34529 ft | 452 kts | 117° |
| 2026-04-17 17:18 | 21.88380 | 66.94395 | 34562 ft | 452 kts | 113° |
| 2026-04-17 17:18 | 21.84117 | 67.06943 | 34554 ft | 446 kts | 126° |
| 2026-04-17 17:18 | 21.78654 | 67.19009 | 34111 ft | 457 kts | 111° |
| 2026-04-17 17:18 | 21.75091 | 67.32283 | 33937 ft | 462 kts | 115° |
| 2026-04-17 17:19 | 21.70313 | 67.44716 | 34558 ft | 447 kts | 117° |
| 2026-04-17 17:19 | 21.60576 | 67.69588 | 34116 ft | 456 kts | 117° |
| 2026-04-17 17:19 | 21.55677 | 67.82175 | 34289 ft | 454 kts | 117° |
| 2026-04-17 17:20 | 21.50420 | 67.94452 | 34208 ft | 453 kts | 121° |
| 2026-04-17 17:20 | 21.39149 | 68.18283 | 34553 ft | 449 kts | 121° |
| 2026-04-17 17:21 | 21.27714 | 68.42414 | 34273 ft | 456 kts | 121° |
| 2026-04-17 17:21 | 21.22065 | 68.54419 | 34713 ft | 453 kts | 121° |
| 2026-04-17 17:21 | 21.16370 | 68.66498 | 34501 ft | 455 kts | 121° |
| 2026-04-17 17:21 | 21.10713 | 68.78610 | 35036 ft | 450 kts | 121° |
| 2026-04-17 17:22 | 21.05347 | 68.90850 | 34291 ft | 464 kts | 118° |
| 2026-04-17 17:22 | 21.00652 | 69.03665 | 35177 ft | 454 kts | 116° |
| 2026-04-17 17:22 | 20.96174 | 69.16375 | 34853 ft | 471 kts | 112° |
| 2026-04-17 17:22 | 20.92237 | 69.29528 | 35145 ft | 468 kts | 113° |
| 2026-04-17 17:23 | 20.88203 | 69.43063 | 35840 ft | 473 kts | 113° |
| 2026-04-17 17:23 | 20.84263 | 69.56484 | 35713 ft | 476 kts | 113° |
| 2026-04-17 17:23 | 20.80271 | 69.70208 | 35629 ft | 482 kts | 113° |
| 2026-04-17 17:23 | 20.76326 | 69.83889 | 35413 ft | 484 kts | 113° |
| 2026-04-17 17:24 | 20.72220 | 69.97348 | 36266 ft | 481 kts | 116° |
| 2026-04-17 17:24 | 20.67830 | 70.10913 | 35298 ft | 480 kts | 116° |
| 2026-04-17 17:24 | 20.63448 | 70.24561 | 34631 ft | 487 kts | 116° |
| 2026-04-17 17:24 | 20.59199 | 70.37974 | 34817 ft | 478 kts | 115° |
| 2026-04-17 17:25 | 20.54952 | 70.51421 | 34556 ft | 486 kts | 115° |
| 2026-04-17 17:25 | 20.50725 | 70.64801 | 33673 ft | 489 kts | 115° |
| 2026-04-17 17:25 | 20.49643 | 70.68211 | 33853 ft | 488 kts | 115° |
| 2026-04-17 17:25 | 20.48484 | 70.71614 | 34303 ft | 481 kts | 118° |
| 2026-04-17 17:26 | 20.47338 | 70.74905 | 34728 ft | 477 kts | 117° |
| 2026-04-17 17:26 | 20.46225 | 70.78278 | 34891 ft | 481 kts | 116° |
| 2026-04-17 17:26 | 20.45136 | 70.81663 | 34872 ft | 488 kts | 116° |
| 2026-04-17 17:27 | 20.42955 | 70.88597 | 34877 ft | 497 kts | 115° |
| 2026-04-17 17:27 | 20.40777 | 70.95549 | 34881 ft | 497 kts | 115° |
| 2026-04-17 17:28 | 20.38579 | 71.02553 | 34880 ft | 497 kts | 115° |
| 2026-04-17 17:28 | 20.36752 | 71.08362 | 34879 ft | 497 kts | 115° |
| 2026-04-17 17:29 | 20.34553 | 71.15349 | 34873 ft | 496 kts | 115° |
| 2026-04-17 17:29 | 20.32346 | 71.22348 | 34875 ft | 496 kts | 115° |
| 2026-04-17 17:30 | 20.30169 | 71.29241 | 34880 ft | 495 kts | 115° |
| 2026-04-17 17:30 | 20.27972 | 71.36191 | 34874 ft | 494 kts | 115° |
| 2026-04-17 17:31 | 20.25782 | 71.43107 | 34874 ft | 493 kts | 115° |
| 2026-04-17 17:31 | 20.23577 | 71.50059 | 34868 ft | 493 kts | 115° |
| 2026-04-17 17:32 | 20.21245 | 71.56867 | 34854 ft | 484 kts | 124° |
| 2026-04-17 17:32 | 20.19358 | 71.59766 | 34860 ft | 465 kts | 141° |
| 2026-04-17 17:32 | 20.17020 | 71.62093 | 34876 ft | 462 kts | 145° |
| 2026-04-17 17:33 | 20.12542 | 71.67069 | 34881 ft | 472 kts | 135° |
| 2026-04-17 17:33 | 20.08258 | 71.72310 | 34893 ft | 468 kts | 139° |
| 2026-04-17 17:34 | 20.03916 | 71.77363 | 34879 ft | 462 kts | 139° |
| 2026-04-17 17:34 | 19.99582 | 71.82414 | 34873 ft | 458 kts | 139° |
| 2026-04-17 17:35 | 19.95312 | 71.87388 | 34872 ft | 459 kts | 139° |
| 2026-04-17 17:35 | 19.90995 | 71.92413 | 34870 ft | 458 kts | 139° |
| 2026-04-17 17:36 | 19.86669 | 71.97443 | 34872 ft | 459 kts | 139° |
| 2026-04-17 17:36 | 19.82359 | 72.02451 | 34876 ft | 458 kts | 139° |
| 2026-04-17 17:37 | 19.78026 | 72.07480 | 34873 ft | 462 kts | 139° |
| 2026-04-17 17:37 | 19.73718 | 72.12477 | 34872 ft | 462 kts | 139° |
| 2026-04-17 17:38 | 19.69379 | 72.17505 | 34875 ft | 461 kts | 139° |
| 2026-04-17 17:38 | 19.65056 | 72.22510 | 34877 ft | 462 kts | 139° |
| 2026-04-17 17:39 | 19.60713 | 72.27535 | 34874 ft | 460 kts | 139° |
| 2026-04-17 17:39 | 19.56399 | 72.32521 | 34858 ft | 458 kts | 139° |
| 2026-04-17 17:39 | 19.54252 | 72.35002 | 34462 ft | 461 kts | 139° |
| 2026-04-17 17:40 | 19.52052 | 72.37541 | 33972 ft | 463 kts | 139° |
| 2026-04-17 17:40 | 19.49884 | 72.40045 | 33452 ft | 465 kts | 139° |
| 2026-04-17 17:40 | 19.47677 | 72.42590 | 32921 ft | 467 kts | 138° |
| 2026-04-17 17:40 | 19.45499 | 72.45102 | 32404 ft | 468 kts | 138° |
| 2026-04-17 17:41 | 19.43298 | 72.47639 | 31897 ft | 470 kts | 137° |
| 2026-04-17 17:41 | 19.41057 | 72.50220 | 31391 ft | 472 kts | 137° |
| 2026-04-17 17:41 | 19.38856 | 72.52754 | 30907 ft | 473 kts | 137° |
| 2026-04-17 17:41 | 19.36601 | 72.55349 | 30405 ft | 475 kts | 136° |
| 2026-04-17 17:42 | 19.34367 | 72.57918 | 29941 ft | 477 kts | 136° |
| 2026-04-17 17:42 | 19.32109 | 72.60515 | 29390 ft | 478 kts | 136° |
| 2026-04-17 17:42 | 19.29868 | 72.63091 | 28848 ft | 479 kts | 136° |
| 2026-04-17 17:42 | 19.27612 | 72.65683 | 28313 ft | 481 kts | 136° |
| 2026-04-17 17:43 | 19.25355 | 72.68275 | 27785 ft | 482 kts | 136° |
| 2026-04-17 17:43 | 19.23070 | 72.70898 | 27267 ft | 483 kts | 136° |
| 2026-04-17 17:43 | 19.20806 | 72.73497 | 26759 ft | 484 kts | 136° |
| 2026-04-17 17:43 | 19.18498 | 72.76144 | 26257 ft | 485 kts | 135° |
| 2026-04-17 17:44 | 19.16220 | 72.78756 | 25774 ft | 485 kts | 135° |
| 2026-04-17 17:44 | 19.13923 | 72.81390 | 25299 ft | 486 kts | 135° |
| 2026-04-17 17:44 | 19.11646 | 72.83998 | 24830 ft | 485 kts | 135° |
| 2026-04-17 17:44 | 19.09339 | 72.86648 | 24369 ft | 485 kts | 134° |
| 2026-04-17 17:45 | 19.07265 | 72.89486 | 24923 ft | 482 kts | 120° |
| 2026-04-17 17:45 | 19.05851 | 72.92637 | 24479 ft | 475 kts | 113° |
| 2026-04-17 17:45 | 19.04431 | 72.95744 | 23966 ft | 471 kts | 119° |
| 2026-04-17 17:45 | 19.02852 | 72.98779 | 23476 ft | 468 kts | 118° |
| 2026-04-17 17:46 | 19.01303 | 73.01799 | 22975 ft | 464 kts | 118° |
| 2026-04-17 17:46 | 18.99763 | 73.04820 | 21396 ft | 464 kts | 120° |
| 2026-04-17 17:46 | 18.98244 | 73.07802 | 20899 ft | 465 kts | 120° |
| 2026-04-17 17:46 | 18.96721 | 73.10784 | 20422 ft | 461 kts | 120° |
| 2026-04-17 17:47 | 18.95204 | 73.13756 | 19969 ft | 443 kts | 120° |
| 2026-04-17 17:47 | 18.93775 | 73.16551 | 19579 ft | 428 kts | 120° |
| 2026-04-17 17:47 | 18.92359 | 73.19318 | 19124 ft | 422 kts | 120° |
| 2026-04-17 17:47 | 18.90977 | 73.22019 | 18676 ft | 417 kts | 119° |
| 2026-04-17 17:48 | 18.89606 | 73.24697 | 18236 ft | 412 kts | 119° |
| 2026-04-17 17:48 | 18.88263 | 73.27318 | 17730 ft | 407 kts | 119° |
| 2026-04-17 17:48 | 18.86914 | 73.29952 | 17232 ft | 403 kts | 119° |
| 2026-04-17 17:48 | 18.85575 | 73.32565 | 16732 ft | 398 kts | 119° |
| 2026-04-17 17:49 | 18.84263 | 73.35125 | 16246 ft | 394 kts | 119° |
| 2026-04-17 17:49 | 18.82970 | 73.37646 | 15773 ft | 390 kts | 119° |
| 2026-04-17 17:49 | 18.81677 | 73.40165 | 15311 ft | 386 kts | 119° |
| 2026-04-17 17:49 | 18.80459 | 73.42675 | 14845 ft | 382 kts | 115° |
| 2026-04-17 17:50 | 18.79393 | 73.45210 | 14416 ft | 378 kts | 115° |
| 2026-04-17 17:50 | 18.78328 | 73.47726 | 13967 ft | 375 kts | 115° |
| 2026-04-17 17:50 | 18.77270 | 73.50209 | 13563 ft | 369 kts | 115° |
| 2026-04-17 17:50 | 18.76219 | 73.52670 | 13236 ft | 361 kts | 115° |
| 2026-04-17 17:51 | 18.75195 | 73.55064 | 12902 ft | 356 kts | 115° |
| 2026-04-17 17:51 | 18.74186 | 73.57423 | 12579 ft | 349 kts | 115° |
| 2026-04-17 17:51 | 18.73194 | 73.59739 | 12245 ft | 342 kts | 115° |
| 2026-04-17 17:51 | 18.72231 | 73.61987 | 11929 ft | 335 kts | 115° |
| 2026-04-17 17:52 | 18.71278 | 73.64211 | 11564 ft | 331 kts | 115° |
| 2026-04-17 17:52 | 18.70328 | 73.66427 | 11162 ft | 328 kts | 115° |
| 2026-04-17 17:52 | 18.69493 | 73.68637 | 10748 ft | 325 kts | 104° |
| 2026-04-17 17:52 | 18.69379 | 73.70987 | 10325 ft | 324 kts | 81° |
| 2026-04-17 17:53 | 18.70158 | 73.73186 | 10024 ft | 314 kts | 59° |
| 2026-04-17 17:53 | 18.71324 | 73.75052 | 9785 ft | 298 kts | 60° |
| 2026-04-17 17:53 | 18.72289 | 73.76952 | 9461 ft | 290 kts | 64° |
| 2026-04-17 17:53 | 18.73181 | 73.78844 | 9116 ft | 289 kts | 64° |
| 2026-04-17 17:54 | 18.74058 | 73.80762 | 8785 ft | 288 kts | 65° |
| 2026-04-17 17:54 | 18.74912 | 73.82660 | 8451 ft | 287 kts | 65° |
| 2026-04-17 17:54 | 18.75753 | 73.84551 | 8128 ft | 286 kts | 65° |
| 2026-04-17 17:54 | 18.76591 | 73.86450 | 7800 ft | 285 kts | 65° |
| 2026-04-17 17:55 | 18.77424 | 73.88346 | 7462 ft | 284 kts | 65° |
| 2026-04-17 17:55 | 18.78109 | 73.90287 | 7124 ft | 282 kts | 80° |
| 2026-04-17 17:55 | 18.78021 | 73.92321 | 6789 ft | 274 kts | 107° |
| 2026-04-17 17:55 | 18.77103 | 73.94010 | 6469 ft | 266 kts | 134° |
| 2026-04-17 17:56 | 18.75680 | 73.95179 | 6240 ft | 253 kts | 143° |
| 2026-04-17 17:56 | 18.74322 | 73.96358 | 5977 ft | 252 kts | 136° |
| 2026-04-17 17:56 | 18.73066 | 73.97634 | 5639 ft | 252 kts | 134° |
| 2026-04-17 17:56 | 18.71843 | 73.98952 | 5302 ft | 252 kts | 132° |
| 2026-04-17 17:57 | 18.70632 | 74.00308 | 4971 ft | 253 kts | 131° |
| 2026-04-17 17:57 | 18.69440 | 74.01675 | 4633 ft | 253 kts | 130° |
| 2026-04-17 17:57 | 18.68259 | 74.03044 | 4252 ft | 253 kts | 131° |
| 2026-04-17 17:57 | 18.67112 | 74.04437 | 3870 ft | 251 kts | 121° |
| 2026-04-17 17:58 | 18.66513 | 74.06144 | 3560 ft | 238 kts | 99° |
| 2026-04-17 17:58 | 18.66170 | 74.07802 | 4066 ft | 237 kts | 99° |
| 2026-04-17 17:58 | 18.65819 | 74.09528 | 3911 ft | 245 kts | 99° |
| 2026-04-17 17:58 | 18.65454 | 74.11295 | 3789 ft | 245 kts | 99° |
| 2026-04-17 17:59 | 18.65095 | 74.13042 | 3776 ft | 247 kts | 99° |
| 2026-04-17 17:59 | 18.64732 | 74.14828 | 3767 ft | 247 kts | 99° |
| 2026-04-17 17:59 | 18.64371 | 74.16598 | 3768 ft | 247 kts | 99° |
| 2026-04-17 17:59 | 18.64005 | 74.18380 | 3758 ft | 247 kts | 99° |
| 2026-04-17 18:00 | 18.63640 | 74.20140 | 3754 ft | 248 kts | 99° |
| 2026-04-17 18:00 | 18.63065 | 74.21843 | 3674 ft | 253 kts | 122° |
| 2026-04-17 18:00 | 18.61696 | 74.22956 | 3570 ft | 250 kts | 163° |
| 2026-04-17 18:00 | 18.60000 | 74.23197 | 4100 ft | 246 kts | 181° |
| 2026-04-17 18:01 | 18.58331 | 74.22769 | 3941 ft | 254 kts | 214° |
| 2026-04-17 18:01 | 18.57213 | 74.21396 | 3719 ft | 240 kts | 254° |
| 2026-04-17 18:01 | 18.56989 | 74.19817 | 3887 ft | 208 kts | 270° |
| 2026-04-17 18:01 | 18.56880 | 74.18259 | 3811 ft | 215 kts | 270° |
| 2026-04-17 18:02 | 18.56825 | 74.16695 | 3754 ft | 205 kts | 273° |
| 2026-04-17 18:02 | 18.56831 | 74.15288 | 3764 ft | 187 kts | 275° |
| 2026-04-17 18:02 | 18.56873 | 74.13897 | 3761 ft | 191 kts | 276° |
| 2026-04-17 18:02 | 18.56948 | 74.12484 | 3764 ft | 192 kts | 277° |
| 2026-04-17 18:03 | 18.57029 | 74.11099 | 3760 ft | 192 kts | 278° |
| 2026-04-17 18:03 | 18.57115 | 74.09676 | 3755 ft | 193 kts | 277° |
| 2026-04-17 18:03 | 18.57201 | 74.08276 | 3768 ft | 192 kts | 277° |
| 2026-04-17 18:03 | 18.57289 | 74.06865 | 3771 ft | 192 kts | 277° |
| 2026-04-17 18:04 | 18.57377 | 74.05468 | 3758 ft | 192 kts | 277° |
| 2026-04-17 18:04 | 18.57465 | 74.04074 | 3761 ft | 192 kts | 277° |
| 2026-04-17 18:04 | 18.57555 | 74.02656 | 3598 ft | 194 kts | 276° |
| 2026-04-17 18:04 | 18.57644 | 74.01238 | 3381 ft | 190 kts | 276° |
| 2026-04-17 18:05 | 18.57729 | 73.99881 | 3170 ft | 185 kts | 276° |
| 2026-04-17 18:05 | 18.57814 | 73.98533 | 2934 ft | 180 kts | 276° |
| 2026-04-17 18:05 | 18.57895 | 73.97251 | 2728 ft | 172 kts | 275° |
| 2026-04-17 18:05 | 18.57972 | 73.96029 | 2507 ft | 167 kts | 274° |
| 2026-04-17 18:06 | 18.58048 | 73.94813 | 2281 ft | 163 kts | 274° |
| 2026-04-17 18:06 | 18.58131 | 73.93631 | 2052 ft | 162 kts | 274° |
| 2026-04-17 18:06 | 18.58203 | 73.92457 | 1928 ft | 160 kts | 274° |
| 2026-04-17 18:06 | 18.58257 | 73.91443 | 1928 ft | 82 kts | 274° |
| 2026-04-17 18:07 | 18.58284 | 73.91038 | 1928 ft | 29 kts | 275° |
| 2026-04-17 18:07 | 18.58245 | 73.90949 | 1928 ft | 8 kts | 186° |
| 2026-04-17 18:07 | 18.58230 | 73.90947 | 1928 ft | 0 kts | 186° |
| 2026-04-17 18:08 | 18.58225 | 73.90946 | 1928 ft | 3 kts | 186° |
| 2026-04-17 18:09 | 18.58165 | 73.90938 | 1927 ft | 13 kts | 189° |
| 2026-04-17 18:09 | 18.58093 | 73.90922 | 1928 ft | 10 kts | 188° |
| 2026-04-17 18:09 | 18.58053 | 73.90951 | 1928 ft | 7 kts | 103° |
| 2026-04-17 18:09 | 18.58044 | 73.91006 | 1928 ft | 8 kts | 97° |
| 2026-04-17 18:10 | 18.58038 | 73.91040 | 1926 ft | 4 kts | 114° |
| 2026-04-17 18:10 | 18.58026 | 73.91048 | 1928 ft | 3 kts | 159° |
| 2026-04-17 18:10 | 18.57995 | 73.91050 | 1928 ft | 1 kts | 185° |
| 2026-04-17 18:10 | 18.57990 | 73.91049 | 1928 ft | 0 kts | 188° |